Time;durP1;ratioP1;P1;durP2;ratioP2;P2;SDS_P1;SDS_P2;PMS_P1;PMS_P2;Temp;Humidity;BMP_temperature;BMP_pressure;BME280_temperature;BME280_humidity;BME280_pressure;Samples;Min_cycle;Max_cycle;Signal;HPM_P1;HPM_P2
2023/08/22 00:02:00;;;;;;;3.07;0.90;;;;;;;20.76;99.06;101141.84;5217086;28;20058;-74
2023/08/22 00:04:30;;;;;;;1.75;0.88;;;;;;;20.57;100.00;101144.06;5215821;28;20299;-74
2023/08/22 00:07:01;;;;;;;4.43;1.10;;;;;;;20.77;100.00;101148.88;5209272;28;20096;-74
2023/08/22 00:09:31;;;;;;;2.92;1.10;;;;;;;20.94;96.78;101148.59;5207392;28;20033;-74
2023/08/22 00:12:01;;;;;;;5.65;1.20;;;;;;;20.99;93.17;101162.41;5210939;28;20036;-74
2023/08/22 00:14:32;;;;;;;5.80;1.05;;;;;;;20.82;93.68;101146.75;5208572;28;20653;-75
2023/08/22 00:17:02;;;;;;;2.70;1.00;;;;;;;20.74;94.67;101133.13;5213530;28;20017;-74
2023/08/22 00:19:32;;;;;;;4.88;1.00;;;;;;;20.76;96.00;101140.03;5217163;28;20065;-75
2023/08/22 00:22:03;;;;;;;4.30;0.93;;;;;;;20.65;98.47;101138.22;5214546;28;20021;-74
2023/08/22 00:24:33;;;;;;;4.25;1.00;;;;;;;20.65;97.54;101131.09;5212876;28;20029;-74
2023/08/22 00:27:04;;;;;;;3.05;0.90;;;;;;;20.53;100.00;101134.59;5208340;28;20509;-74
2023/08/22 00:29:34;;;;;;;2.90;1.02;;;;;;;20.27;100.00;101138.13;5211728;28;20075;-75
2023/08/22 00:32:05;;;;;;;2.53;0.90;;;;;;;20.19;100.00;101143.13;5215865;28;20510;-74
2023/08/22 00:34:35;;;;;;;2.38;1.00;;;;;;;20.35;99.05;101130.53;5215278;28;20025;-75
2023/08/22 00:37:06;;;;;;;6.22;1.30;;;;;;;20.52;97.64;101127.59;5214830;28;20052;-74
2023/08/22 00:39:36;;;;;;;3.33;0.85;;;;;;;20.46;100.00;101127.16;5218599;28;20025;-74
2023/08/22 00:42:07;;;;;;;1.77;0.90;;;;;;;20.46;100.00;101127.16;5202357;28;20064;-74
2023/08/22 00:44:37;;;;;;;2.40;0.80;;;;;;;20.21;100.00;101130.59;5212230;28;20418;-74
2023/08/22 00:47:08;;;;;;;2.88;1.00;;;;;;;20.21;100.00;101127.06;5211512;28;20043;-74
2023/08/22 00:49:39;;;;;;;5.85;1.05;;;;;;;20.03;100.00;101118.53;5216721;28;20021;-74
2023/08/22 00:52:10;;;;;;;2.53;0.98;;;;;;;20.19;100.00;101115.69;5210792;28;20070;-74
2023/08/22 00:54:41;;;;;;;3.88;0.85;;;;;;;19.94;100.00;101102.34;5216115;28;20521;-74
2023/08/22 00:57:11;;;;;;;2.80;1.40;;;;;;;19.79;100.00;101093.53;5215688;28;20383;-74
2023/08/22 00:59:42;;;;;;;2.45;1.15;;;;;;;19.73;100.00;101099.25;5214630;28;20119;-74
2023/08/22 01:02:14;;;;;;;5.30;1.13;;;;;;;19.68;100.00;101096.06;5207166;28;20525;-74
2023/08/22 01:04:44;;;;;;;4.05;1.00;;;;;;;19.88;100.00;101098.28;5271345;22;20039;-76
2023/08/22 01:07:30;;;;;;;2.07;0.90;;;;;;;19.76;100.00;101099.06;5252295;28;20428;-77
2023/08/22 01:10:13;;;;;;;2.10;1.00;;;;;;;19.68;100.00;101101.38;5257989;28;20269;-76
2023/08/22 01:12:48;;;;;;;1.88;0.80;;;;;;;19.68;100.00;101113.78;5258143;28;20032;-76
2023/08/22 01:15:28;;;;;;;1.20;0.80;;;;;;;19.69;100.00;101113.69;5255011;28;20036;-76
2023/08/22 01:18:01;;;;;;;4.72;1.00;;;;;;;19.81;100.00;101112.88;5249534;28;20074;-76
2023/08/22 01:20:31;;;;;;;2.28;1.02;;;;;;;19.82;100.00;101106.59;5251602;28;20012;-77
2023/08/22 01:23:03;;;;;;;3.20;1.20;;;;;;;19.79;100.00;101120.06;5254472;28;20036;-76
2023/08/22 01:25:34;;;;;;;2.90;1.10;;;;;;;19.83;100.00;101111.00;5255187;28;20103;-77
2023/08/22 01:28:11;;;;;;;2.90;1.20;;;;;;;19.98;100.00;101104.66;5255399;28;20092;-77
2023/08/22 01:30:48;;;;;;;3.60;1.10;;;;;;;19.94;100.00;101111.13;5251726;28;20489;-76
2023/08/22 01:33:33;;;;;;;5.15;1.30;;;;;;;19.81;100.00;101120.81;5253256;28;20039;-77
2023/08/22 01:36:06;;;;;;;3.10;1.08;;;;;;;19.84;100.00;101118.00;5256010;28;20039;-76
2023/08/22 01:38:39;;;;;;;2.58;1.20;;;;;;;19.86;100.00;101129.38;5249838;28;20055;-76
2023/08/22 01:41:10;;;;;;;4.20;1.15;;;;;;;19.86;100.00;101118.75;5250851;28;20033;-76
2023/08/22 01:43:43;;;;;;;4.22;1.40;;;;;;;19.79;100.00;101108.63;5252089;28;20028;-76
2023/08/22 01:46:13;;;;;;;4.65;1.25;;;;;;;19.62;100.00;101098.25;5251916;28;20120;-76
2023/08/22 01:48:43;;;;;;;3.53;1.00;;;;;;;19.67;100.00;101098.81;5253140;28;20020;-77
2023/08/22 01:51:13;;;;;;;2.00;1.30;;;;;;;19.56;100.00;101095.97;5250729;28;20024;-77
2023/08/22 01:53:44;;;;;;;6.75;1.38;;;;;;;19.78;100.00;101083.88;5250855;28;20032;-77
2023/08/22 01:56:14;;;;;;;3.13;1.10;;;;;;;19.73;100.00;101083.34;5249449;28;20473;-77
2023/08/22 01:58:44;;;;;;;9.23;1.10;;;;;;;19.70;100.00;101083.56;5249598;28;20046;-76
2023/08/22 02:01:15;;;;;;;4.97;1.52;;;;;;;19.82;100.00;101090.69;5250355;28;20397;-76
2023/08/22 02:03:46;;;;;;;5.65;1.27;;;;;;;19.89;100.00;101093.78;5255311;28;20039;-76
2023/08/22 02:06:16;;;;;;;6.20;1.42;;;;;;;19.84;100.00;101086.16;5250030;28;20024;-76
2023/08/22 02:08:46;;;;;;;3.58;1.05;;;;;;;19.74;100.00;101078.88;5247279;28;21332;-76
2023/08/22 02:11:18;;;;;;;2.58;1.15;;;;;;;19.74;100.00;101082.41;5249960;28;20027;-76
2023/08/22 02:13:49;;;;;;;6.18;1.10;;;;;;;19.77;100.00;101084.00;5250901;28;20508;-76
2023/08/22 02:16:19;;;;;;;2.45;1.17;;;;;;;19.91;100.00;101076.84;5252979;28;20032;-76
2023/08/22 02:18:49;;;;;;;3.80;1.05;;;;;;;19.95;100.00;101075.66;5252524;28;20044;-76
2023/08/22 02:21:20;;;;;;;4.97;0.93;;;;;;;20.00;100.00;101073.59;5251272;28;20027;-77
2023/08/22 02:23:50;;;;;;;3.78;0.98;;;;;;;19.86;100.00;101075.44;5252533;28;20775;-76
2023/08/22 02:26:20;;;;;;;4.88;1.27;;;;;;;19.72;100.00;101076.34;5253511;28;20397;-76
2023/08/22 02:28:52;;;;;;;4.72;1.10;;;;;;;19.70;100.00;101080.91;5254527;28;20074;-76
2023/08/22 02:31:22;;;;;;;4.35;0.90;;;;;;;19.81;100.00;101083.69;5245442;28;20127;-76
2023/08/22 02:33:53;;;;;;;2.33;0.90;;;;;;;19.86;100.00;101078.94;5242324;28;20111;-76
2023/08/22 02:36:23;;;;;;;4.30;0.90;;;;;;;19.85;100.00;101069.28;5253320;28;20032;-77
2023/08/22 02:38:53;;;;;;;3.78;1.17;;;;;;;19.88;100.00;101068.22;5249048;28;20447;-76
2023/08/22 02:41:23;;;;;;;5.10;1.35;;;;;;;19.88;100.00;101065.56;5250992;28;20317;-76
2023/08/22 02:43:54;;;;;;;4.60;1.10;;;;;;;19.77;100.00;101066.28;5244656;28;20318;-75
2023/08/22 02:46:24;;;;;;;4.00;0.98;;;;;;;19.79;100.00;101071.50;5252814;28;20327;-75
2023/08/22 02:48:54;;;;;;;2.60;1.02;;;;;;;19.77;100.00;101047.69;5244239;28;20470;-73
2023/08/22 02:51:25;;;;;;;2.05;1.00;;;;;;;19.69;100.00;101035.88;5246814;28;20115;-76
2023/08/22 02:53:55;;;;;;;2.80;1.02;;;;;;;19.36;100.00;101041.59;5251753;28;20019;-75
2023/08/22 02:56:25;;;;;;;3.58;1.10;;;;;;;19.43;100.00;101031.44;5254111;28;20400;-76
2023/08/22 02:58:56;;;;;;;5.38;1.10;;;;;;;19.52;100.00;101031.69;5254677;28;20038;-76
2023/08/22 03:01:26;;;;;;;2.55;1.10;;;;;;;19.43;100.00;101029.63;5244758;28;20043;-77
2023/08/22 03:03:56;;;;;;;3.75;0.90;;;;;;;19.51;100.00;101023.84;5252153;28;20387;-76
2023/08/22 03:06:26;;;;;;;3.28;1.20;;;;;;;19.38;100.00;101026.44;5257462;28;20016;-76
2023/08/22 03:08:57;;;;;;;2.40;0.90;;;;;;;19.49;100.00;101039.88;5252540;28;20474;-74
2023/08/22 03:11:27;;;;;;;1.58;0.88;;;;;;;19.52;100.00;101026.41;5250814;28;20032;-76
2023/08/22 03:13:58;;;;;;;3.50;1.10;;;;;;;19.38;100.00;101018.47;5235649;28;20043;-72
2023/08/22 03:16:28;;;;;;;5.38;1.40;;;;;;;19.20;100.00;101030.25;5238494;28;20056;-76
2023/08/22 03:18:58;;;;;;;3.22;1.10;;;;;;;19.39;100.00;101025.47;5243097;28;20035;-73
2023/08/22 03:21:29;;;;;;;2.22;0.98;;;;;;;19.35;100.00;101021.34;5235102;28;20020;-76
2023/08/22 03:23:59;;;;;;;4.72;1.40;;;;;;;19.38;100.00;101020.25;5246257;28;20036;-76
2023/08/22 03:26:29;;;;;;;2.15;1.05;;;;;;;19.30;100.00;101020.75;5237690;28;20029;-77
2023/08/22 03:29:00;;;;;;;6.18;1.52;;;;;;;19.36;100.00;101019.53;5239037;28;20078;-75
2023/08/22 03:31:30;;;;;;;4.65;1.25;;;;;;;19.44;100.00;101012.78;5239762;28;20457;-75
2023/08/22 03:34:00;;;;;;;5.18;1.20;;;;;;;19.48;100.00;101014.25;5240715;28;20052;-74
2023/08/22 03:36:31;;;;;;;4.28;1.02;;;;;;;19.32;100.00;101010.94;5240262;28;20036;-75
2023/08/22 03:39:02;;;;;;;4.43;1.23;;;;;;;19.25;100.00;101012.25;5242787;28;20192;-74
2023/08/22 03:41:32;;;;;;;2.20;0.95;;;;;;;19.21;100.00;101016.06;5240521;28;20440;-76
2023/08/22 03:44:02;;;;;;;2.80;1.10;;;;;;;19.15;100.00;101003.19;5235777;28;20494;-77
2023/08/22 03:46:33;;;;;;;5.32;1.50;;;;;;;19.19;100.00;101009.16;5239952;28;20287;-77
2023/08/22 03:49:03;;;;;;;2.53;1.00;;;;;;;19.23;100.00;101013.28;5241160;28;20039;-77
2023/08/22 03:51:33;;;;;;;3.42;1.02;;;;;;;19.23;100.00;101008.00;5239672;28;20047;-76
2023/08/22 03:54:04;;;;;;;1.92;0.95;;;;;;;19.32;100.00;101008.28;5245832;28;20036;-76
2023/08/22 03:56:34;;;;;;;5.60;1.20;;;;;;;19.29;100.00;100999.66;5244368;28;20028;-77
2023/08/22 03:59:04;;;;;;;4.45;1.25;;;;;;;19.20;100.00;100987.00;5242590;28;20032;-76
2023/08/22 04:01:35;;;;;;;4.80;1.23;;;;;;;19.24;100.00;100989.34;5236692;28;20511;-76
2023/08/22 04:04:05;;;;;;;1.65;0.90;;;;;;;19.23;100.00;101003.56;5245951;28;20035;-76
2023/08/22 04:06:35;;;;;;;3.70;1.30;;;;;;;19.22;100.00;101001.84;5237862;28;20033;-76
2023/08/22 04:09:06;;;;;;;2.10;1.00;;;;;;;19.19;100.00;101011.78;5243510;28;20032;-76
2023/08/22 04:11:37;;;;;;;3.55;1.05;;;;;;;19.17;100.00;101030.47;5235749;28;20497;-76
2023/08/22 04:14:08;;;;;;;2.95;1.23;;;;;;;19.23;100.00;101027.41;5238285;28;20031;-76
2023/08/22 04:16:38;;;;;;;2.80;1.00;;;;;;;19.21;100.00;101026.66;5242454;28;20047;-76
2023/08/22 04:19:08;;;;;;;1.53;0.90;;;;;;;19.40;100.00;101019.22;5248200;28;20110;-76
2023/08/22 04:21:39;;;;;;;2.60;1.00;;;;;;;19.45;100.00;101009.16;5247047;28;20282;-76
2023/08/22 04:24:09;;;;;;;3.90;1.08;;;;;;;19.36;100.00;101024.81;5247151;28;20028;-75
2023/08/22 04:26:40;;;;;;;4.13;1.30;;;;;;;19.40;100.00;101021.88;5227892;28;20025;-76
2023/08/22 04:29:10;;;;;;;4.47;1.10;;;;;;;19.49;100.00;101029.25;5242635;28;20028;-75
2023/08/22 04:31:40;;;;;;;4.45;1.05;;;;;;;19.49;100.00;101028.38;5239115;28;20052;-74
2023/08/22 04:34:11;;;;;;;2.22;0.88;;;;;;;19.54;100.00;101021.84;5244793;28;20163;-75
2023/08/22 04:36:41;;;;;;;1.80;0.90;;;;;;;19.64;100.00;101024.75;5244095;28;20032;-74
2023/08/22 04:39:11;;;;;;;6.53;1.30;;;;;;;19.36;100.00;101020.38;5247164;28;20124;-75
2023/08/22 04:41:42;;;;;;;4.63;1.15;;;;;;;19.34;100.00;101016.13;5235266;28;20041;-74
2023/08/22 04:44:13;;;;;;;5.38;1.05;;;;;;;19.42;100.00;101012.03;5241302;28;20059;-75
2023/08/22 04:46:43;;;;;;;3.47;1.10;;;;;;;19.40;100.00;101015.72;5240579;28;20021;-76
2023/08/22 04:49:13;;;;;;;3.38;1.05;;;;;;;19.51;100.00;101011.44;5253198;28;20020;-74
2023/08/22 04:51:44;;;;;;;3.55;1.13;;;;;;;19.48;100.00;101013.44;5242160;28;20110;-74
2023/08/22 04:54:14;;;;;;;2.53;1.08;;;;;;;19.61;100.00;101004.56;5251784;28;20390;-75
2023/08/22 04:56:45;;;;;;;3.15;0.88;;;;;;;19.59;100.00;101000.34;5250667;28;20040;-75
2023/08/22 04:59:15;;;;;;;1.83;0.95;;;;;;;19.60;100.00;100991.44;5244119;28;20068;-76
2023/08/22 05:01:45;;;;;;;4.40;1.38;;;;;;;19.63;100.00;100997.34;5242896;28;20064;-76
2023/08/22 05:04:16;;;;;;;1.90;0.90;;;;;;;19.89;100.00;100992.97;5244835;28;20039;-73
2023/08/22 05:06:47;;;;;;;2.42;0.95;;;;;;;20.11;100.00;100999.41;5224104;28;20325;-76
2023/08/22 05:09:17;;;;;;;6.82;1.20;;;;;;;19.97;100.00;101007.41;5243128;28;20039;-73
2023/08/22 05:11:49;;;;;;;4.35;1.00;;;;;;;20.04;100.00;101010.56;5244038;28;20055;-73
2023/08/22 05:14:20;;;;;;;2.90;1.02;;;;;;;19.89;100.00;101003.56;5246644;28;20385;-73
2023/08/22 05:16:52;;;;;;;3.17;1.13;;;;;;;19.95;100.00;101009.34;5242942;28;20291;-74
2023/08/22 05:19:22;;;;;;;4.60;1.13;;;;;;;20.08;100.00;101006.72;5242924;28;20127;-74
2023/08/22 05:21:53;;;;;;;5.65;1.00;;;;;;;20.07;100.00;101013.00;5246541;28;20127;-75
2023/08/22 05:24:23;;;;;;;4.07;1.10;;;;;;;19.81;100.00;101013.88;5247498;28;20027;-74
2023/08/22 05:26:53;;;;;;;3.22;1.00;;;;;;;19.80;100.00;101015.66;5241134;28;20028;-74
2023/08/22 05:29:24;;;;;;;2.45;1.20;;;;;;;19.75;100.00;101007.16;5244944;28;20111;-74
2023/08/22 05:31:54;;;;;;;1.65;0.80;;;;;;;19.77;100.00;101013.22;5249828;28;20024;-74
2023/08/22 05:34:24;;;;;;;4.80;1.10;;;;;;;19.87;100.00;101014.31;5243640;28;20073;-74
2023/08/22 05:36:55;;;;;;;2.10;0.93;;;;;;;19.96;100.00;101016.34;5248254;28;20409;-74
2023/08/22 05:39:25;;;;;;;2.40;1.00;;;;;;;20.03;100.00;101020.34;5241589;28;20035;-74
2023/08/22 05:41:55;;;;;;;3.40;1.20;;;;;;;20.14;100.00;101022.25;5243008;28;20048;-74
2023/08/22 05:44:26;;;;;;;3.30;1.27;;;;;;;20.06;100.00;101025.44;5246721;28;20327;-74
2023/08/22 05:46:56;;;;;;;2.08;0.90;;;;;;;20.12;100.00;101013.56;5252910;28;20457;-73
2023/08/22 05:49:26;;;;;;;5.60;1.10;;;;;;;19.96;100.00;101016.34;5247475;28;20248;-74
2023/08/22 05:52:02;;;;;;;2.80;1.30;;;;;;;20.01;100.00;101014.25;5250510;28;20289;-72
2023/08/22 05:54:33;;;;;;;2.95;1.25;;;;;;;20.03;100.00;101017.69;5264205;28;20036;-74
2023/08/22 05:57:03;;;;;;;2.78;1.10;;;;;;;20.18;100.00;101019.31;5248796;28;20405;-75
2023/08/22 05:59:33;;;;;;;2.85;1.20;;;;;;;20.30;100.00;101013.13;5245703;28;20029;-74
2023/08/22 06:02:04;;;;;;;5.32;1.23;;;;;;;20.34;100.00;101019.09;5249319;28;20110;-74
2023/08/22 06:04:34;;;;;;;2.72;1.02;;;;;;;20.41;100.00;101020.38;5249616;28;20120;-75
2023/08/22 06:07:05;;;;;;;4.43;1.35;;;;;;;20.52;100.00;101018.69;5250123;28;20213;-74
2023/08/22 06:09:36;;;;;;;3.42;1.10;;;;;;;20.48;100.00;101024.31;5246270;28;20024;-75
2023/08/22 06:12:07;;;;;;;4.63;0.88;;;;;;;20.56;100.00;101014.84;5245928;28;20031;-74
2023/08/22 06:14:38;;;;;;;1.83;0.90;;;;;;;20.58;100.00;101012.94;5248493;28;20528;-74
2023/08/22 06:17:09;;;;;;;4.53;1.20;;;;;;;20.71;100.00;101021.75;5249225;28;20111;-75
2023/08/22 06:19:39;;;;;;;4.22;1.10;;;;;;;20.53;100.00;101020.38;5247959;28;20468;-74
2023/08/22 06:22:09;;;;;;;3.20;1.00;;;;;;;20.59;100.00;101009.31;5248404;28;20032;-74
2023/08/22 06:24:40;;;;;;;2.67;0.80;;;;;;;20.50;100.00;101017.91;5247428;28;20051;-74
2023/08/22 06:27:10;;;;;;;4.32;1.00;;;;;;;20.60;100.00;101019.00;5251324;28;20032;-71
2023/08/22 06:29:40;;;;;;;2.23;0.90;;;;;;;20.70;100.00;101012.94;5247309;28;20025;-74
2023/08/22 06:32:11;;;;;;;3.10;1.20;;;;;;;20.78;100.00;101021.22;5248906;28;20285;-75
2023/08/22 06:34:41;;;;;;;3.33;0.75;;;;;;;20.73;99.22;101019.84;5249107;28;20083;-73
2023/08/22 06:37:11;;;;;;;3.63;1.00;;;;;;;20.86;99.39;101020.72;5244256;28;20416;-75
2023/08/22 06:39:41;;;;;;;4.60;1.13;;;;;;;20.79;100.00;101022.06;5241370;28;20036;-75
2023/08/22 06:42:12;;;;;;;4.07;1.20;;;;;;;20.90;100.00;101011.56;5231110;28;20678;-75
2023/08/22 06:44:42;;;;;;;5.20;1.30;;;;;;;20.88;98.31;101009.00;5235905;28;20147;-74
2023/08/22 06:47:12;;;;;;;5.32;1.17;;;;;;;20.77;98.29;101016.00;5233141;28;20277;-73
2023/08/22 06:49:42;;;;;;;3.90;1.00;;;;;;;20.83;98.32;101013.81;5233559;28;20094;-74
2023/08/22 06:52:14;;;;;;;3.07;1.20;;;;;;;20.90;100.00;101012.41;5236980;28;20473;-74
2023/08/22 06:54:44;;;;;;;3.13;1.00;;;;;;;20.89;100.00;101013.34;5233965;28;20333;-73
2023/08/22 06:57:14;;;;;;;2.33;1.00;;;;;;;20.89;100.00;101025.81;5237303;28;20028;-72
2023/08/22 06:59:45;;;;;;;3.80;1.00;;;;;;;20.84;100.00;101022.59;5236599;28;20024;-74
2023/08/22 07:02:15;;;;;;;3.22;1.10;;;;;;;20.91;100.00;101029.22;5240072;28;20020;-75
2023/08/22 07:04:45;;;;;;;4.10;1.20;;;;;;;20.95;100.00;101030.69;5312425;22;20040;-72
2023/08/22 07:07:16;;;;;;;3.45;1.10;;;;;;;20.89;100.00;101031.13;5226092;28;20024;-71
2023/08/22 07:09:48;;;;;;;3.95;1.15;;;;;;;20.93;100.00;101016.66;5228717;28;20471;-72
2023/08/22 07:12:18;;;;;;;5.30;1.13;;;;;;;21.02;100.00;101011.53;5224590;28;20513;-72
2023/08/22 07:14:49;;;;;;;3.60;1.52;;;;;;;21.09;99.64;101022.59;5211170;28;20052;-71
2023/08/22 07:17:19;;;;;;;1.50;0.73;;;;;;;21.25;100.00;101018.69;5217209;28;20028;-72
2023/08/22 07:19:49;;;;;;;3.70;1.10;;;;;;;21.27;100.00;101014.09;5212142;28;20129;-72
2023/08/22 07:22:20;;;;;;;4.97;1.23;;;;;;;21.35;100.00;101013.56;5214949;28;20502;-72
2023/08/22 07:24:50;;;;;;;2.88;0.95;;;;;;;21.97;97.31;101005.31;5215394;28;20020;-71
2023/08/22 07:27:21;;;;;;;3.03;1.00;;;;;;;22.38;96.25;101005.69;5214411;28;20175;-72
2023/08/22 07:29:51;;;;;;;2.30;0.82;;;;;;;23.92;89.77;101018.91;5212613;28;20277;-72
2023/08/22 07:32:22;;;;;;;2.33;0.77;;;;;;;24.51;84.70;101010.19;5214708;28;20025;-72
2023/08/22 07:34:52;;;;;;;3.22;1.25;;;;;;;25.43;80.06;101013.53;5214262;28;20044;-73
2023/08/22 07:37:23;;;;;;;1.83;0.80;;;;;;;26.72;74.45;101004.91;5213236;28;20025;-73
2023/08/22 07:39:53;;;;;;;3.08;1.00;;;;;;;27.88;71.09;100999.59;5212777;28;20146;-73
2023/08/22 07:42:23;;;;;;;1.63;0.73;;;;;;;29.70;65.81;101006.22;5215486;28;20032;-73
2023/08/22 07:44:53;;;;;;;2.40;0.80;;;;;;;30.72;63.35;101000.19;5215148;28;20036;-73
2023/08/22 07:47:24;;;;;;;1.77;0.70;;;;;;;28.01;66.96;101017.06;5216435;28;20768;-73
2023/08/22 07:49:54;;;;;;;2.43;0.90;;;;;;;29.27;65.28;101007.28;5211205;28;20272;-72
2023/08/22 07:52:24;;;;;;;3.27;1.00;;;;;;;30.42;61.13;101006.31;5211398;28;20644;-73
2023/08/22 07:54:55;;;;;;;3.00;0.97;;;;;;;28.98;62.47;101005.97;5212842;28;20275;-73
2023/08/22 07:57:25;;;;;;;2.92;0.70;;;;;;;30.47;62.94;101002.09;5212158;28;20812;-73
2023/08/22 07:59:55;;;;;;;3.07;0.70;;;;;;;30.04;61.87;101005.13;5212093;28;20180;-73
2023/08/22 08:02:26;;;;;;;6.27;0.90;;;;;;;29.25;63.91;101006.59;5216392;28;20077;-72
2023/08/22 08:04:56;;;;;;;3.13;0.80;;;;;;;28.79;64.45;101008.88;5217822;28;20032;-73
2023/08/22 08:07:26;;;;;;;2.10;0.93;;;;;;;29.52;63.63;100997.44;5218902;28;20017;-72
2023/08/22 08:09:57;;;;;;;2.73;0.80;;;;;;;31.55;59.06;101001.19;5214024;28;20355;-73
2023/08/22 08:12:27;;;;;;;2.70;0.80;;;;;;;30.51;61.43;101003.41;5219535;28;20275;-73
2023/08/22 08:14:57;;;;;;;2.00;0.97;;;;;;;30.63;60.32;101001.22;5217909;28;20032;-73
2023/08/22 08:17:27;;;;;;;2.23;0.70;;;;;;;31.55;58.68;100995.78;5217817;28;20324;-71
2023/08/22 08:19:58;;;;;;;3.10;0.75;;;;;;;30.93;60.43;100993.19;5217422;28;20021;-73
2023/08/22 08:22:28;;;;;;;2.87;0.97;;;;;;;33.12;55.71;100994.72;5218630;28;20049;-72
2023/08/22 08:24:59;;;;;;;1.90;0.70;;;;;;;33.14;53.34;100996.19;5217472;28;20101;-73
2023/08/22 08:27:31;;;;;;;2.78;0.70;;;;;;;32.51;55.96;101003.16;5213628;28;20040;-72
2023/08/22 08:30:05;;;;;;;3.58;0.80;;;;;;;31.74;55.79;101008.84;5212280;28;20033;-73
2023/08/22 08:32:35;;;;;;;1.27;0.70;;;;;;;31.71;55.87;101013.81;5218162;28;20240;-73
2023/08/22 08:35:07;;;;;;;2.33;0.70;;;;;;;34.93;48.08;101001.13;5218313;28;20509;-73
2023/08/22 08:37:37;;;;;;;3.13;0.80;;;;;;;31.91;52.99;101009.59;5219398;28;20299;-74
2023/08/22 08:40:09;;;;;;;5.80;0.90;;;;;;;33.45;53.88;100994.09;5213930;28;20037;-73
2023/08/22 08:42:39;;;;;;;2.40;0.93;;;;;;;32.15;53.46;101004.84;5218109;28;20700;-73
2023/08/22 08:45:11;;;;;;;4.03;0.85;;;;;;;35.39;50.21;100986.69;5218571;28;20037;-74
2023/08/22 08:47:42;;;;;;;2.15;0.70;;;;;;;35.10;46.64;100981.53;5217405;28;20084;-73
2023/08/22 08:50:13;;;;;;;1.25;0.60;;;;;;;33.27;51.06;100979.28;5214797;28;20029;-73
2023/08/22 08:52:45;;;;;;;5.13;0.70;;;;;;;32.56;52.09;100987.19;5217684;28;20029;-74
2023/08/22 08:55:15;;;;;;;3.28;0.80;;;;;;;33.26;54.49;100980.31;5216545;28;20025;-74
2023/08/22 08:57:46;;;;;;;2.85;0.68;;;;;;;32.61;54.61;100984.78;5209938;28;20490;-73
2023/08/22 09:00:17;;;;;;;1.70;0.52;;;;;;;33.86;52.66;100984.34;5211760;28;21008;-73
2023/08/22 09:02:48;;;;;;;3.20;0.60;;;;;;;33.07;52.16;100992.56;5213058;28;20087;-73
2023/08/22 09:05:20;;;;;;;4.95;0.90;;;;;;;34.44;51.84;100983.19;5217478;28;20979;-74
2023/08/22 09:07:50;;;;;;;3.50;0.63;;;;;;;34.62;50.57;100988.97;5214749;28;20067;-72
2023/08/22 09:10:34;;;;;;;2.45;0.57;;;;;;;35.56;47.13;100988.00;5216389;28;20117;-73
2023/08/22 09:13:05;;;;;;;1.53;0.70;;;;;;;35.31;48.33;100992.31;5214741;28;20159;-73
2023/08/22 09:15:35;;;;;;;2.17;0.80;;;;;;;34.42;49.22;100994.28;5214898;28;20025;-73
2023/08/22 09:18:05;;;;;;;2.30;0.70;;;;;;;33.91;50.03;100995.47;5215198;28;20095;-73
2023/08/22 09:20:36;;;;;;;1.90;0.65;;;;;;;32.90;50.45;101001.06;5215357;28;20115;-74
2023/08/22 09:23:19;;;;;;;2.23;0.70;;;;;;;31.75;54.96;101005.16;5213654;28;20036;-73
2023/08/22 09:25:49;;;;;;;2.13;0.68;;;;;;;30.94;57.18;101001.13;5215129;28;20347;-72
2023/08/22 09:28:19;;;;;;;6.30;0.80;;;;;;;31.45;54.33;100994.31;5217282;28;20605;-73
2023/08/22 09:30:50;;;;;;;2.03;0.80;;;;;;;30.99;54.92;100998.75;5215932;28;20234;-73
2023/08/22 09:33:21;;;;;;;3.65;0.90;;;;;;;31.82;56.63;100999.84;5215328;28;20048;-73
2023/08/22 09:35:56;;;;;;;3.05;0.80;;;;;;;31.16;55.18;100984.19;5209841;28;20021;-72
2023/08/22 09:38:27;;;;;;;2.85;0.60;;;;;;;31.02;57.53;100992.97;5215650;28;20469;-72
2023/08/22 09:40:57;;;;;;;4.35;0.88;;;;;;;30.78;59.42;100992.22;5213644;28;20032;-73
2023/08/22 09:43:29;;;;;;;1.45;0.63;;;;;;;30.12;58.29;100996.19;5215317;28;20020;-72
2023/08/22 09:46:00;;;;;;;3.58;0.80;;;;;;;30.46;55.65;100984.19;5208725;28;20119;-71
2023/08/22 09:48:34;;;;;;;2.15;0.70;;;;;;;30.32;59.75;100986.75;5208903;28;20439;-71
2023/08/22 09:51:09;;;;;;;2.45;0.73;;;;;;;29.82;57.07;100986.03;5214525;28;20021;-73
2023/08/22 09:53:39;;;;;;;1.70;0.70;;;;;;;29.68;61.49;100987.56;5213433;28;20080;-73
2023/08/22 09:56:11;;;;;;;2.17;0.85;;;;;;;29.85;60.18;100983.84;5211142;28;20033;-72
2023/08/22 09:58:42;;;;;;;3.25;0.82;;;;;;;30.06;61.53;100988.81;5216634;28;20021;-72
2023/08/22 10:01:14;;;;;;;1.85;0.80;;;;;;;30.42;61.87;100982.00;5213962;28;20104;-72
2023/08/22 10:03:47;;;;;;;3.38;1.08;;;;;;;30.54;59.09;100980.63;5215085;28;20505;-72
2023/08/22 10:06:18;;;;;;;3.13;0.75;;;;;;;30.13;58.25;100987.09;5215647;28;20522;-73
2023/08/22 10:08:48;;;;;;;2.03;0.90;;;;;;;30.03;60.27;100987.28;5213897;28;20064;-72
2023/08/22 10:11:19;;;;;;;4.55;0.80;;;;;;;29.87;59.88;100980.97;5212849;28;20225;-72
2023/08/22 10:13:51;;;;;;;5.60;1.10;;;;;;;29.64;60.07;100985.34;5213626;28;20025;-73
2023/08/22 10:16:21;;;;;;;4.43;1.00;;;;;;;28.86;61.86;100977.66;5216762;28;20407;-73
2023/08/22 10:19:00;;;;;;;3.08;0.70;;;;;;;28.92;62.24;100977.03;5211662;28;20025;-73
2023/08/22 10:21:41;;;;;;;3.13;0.93;;;;;;;28.89;62.59;100972.78;5212767;28;20479;-72
2023/08/22 10:24:20;;;;;;;4.30;1.00;;;;;;;28.85;61.14;100970.56;5214961;28;20035;-73
2023/08/22 10:27:26;;;;;;;4.03;0.95;;;;;;;28.65;60.53;100974.50;5213034;28;20024;-73
2023/08/22 10:30:12;;;;;;;2.53;1.20;;;;;;;28.62;63.82;100979.38;5213226;28;20204;-73
2023/08/22 10:33:02;;;;;;;2.80;1.20;;;;;;;28.31;64.36;100973.59;5212742;28;20033;-72
2023/08/22 10:35:33;;;;;;;3.70;1.35;;;;;;;28.54;65.00;100976.63;5212113;28;20029;-72
2023/08/22 10:38:03;;;;;;;6.88;1.35;;;;;;;28.90;62.02;100968.28;5211747;28;20051;-73
2023/08/22 10:40:34;;;;;;;4.85;1.20;;;;;;;28.72;62.17;100972.00;5214437;28;20036;-73
2023/08/22 10:43:09;;;;;;;7.05;1.50;;;;;;;28.60;62.36;100966.06;5214104;28;20284;-72
2023/08/22 10:45:47;;;;;;;4.65;1.50;;;;;;;28.97;63.33;100955.84;5215597;28;20051;-73
2023/08/22 10:48:19;;;;;;;2.75;1.30;;;;;;;29.14;62.14;100957.56;5213875;28;20052;-72
2023/08/22 10:50:50;;;;;;;6.13;1.48;;;;;;;28.86;65.98;100956.13;5211954;28;20033;-72
2023/08/22 10:53:25;;;;;;;6.63;1.80;;;;;;;28.77;64.67;100965.16;5214268;28;20039;-73
2023/08/22 10:56:16;;;;;;;6.18;1.52;;;;;;;28.90;64.34;100971.78;5213975;28;20036;-73
2023/08/22 10:58:58;;;;;;;4.80;1.60;;;;;;;29.16;62.99;100971.72;5213416;28;20032;-72
2023/08/22 11:01:29;;;;;;;5.25;1.55;;;;;;;28.73;63.73;100960.22;5213598;28;20479;-73
2023/08/22 11:04:00;;;;;;;6.32;2.13;;;;;;;29.03;64.53;100971.38;5211610;28;20033;-73
2023/08/22 11:06:30;;;;;;;3.72;1.58;;;;;;;28.51;64.82;100969.69;5214055;28;20024;-73
2023/08/22 11:09:01;;;;;;;6.25;1.95;;;;;;;28.70;65.38;100971.31;5211133;28;20075;-71
2023/08/22 11:11:34;;;;;;;5.68;2.08;;;;;;;28.93;66.45;100968.75;5215705;28;20634;-72
2023/08/22 11:14:05;;;;;;;3.78;1.80;;;;;;;28.98;65.29;100965.59;5211692;28;20047;-72
2023/08/22 11:16:35;;;;;;;6.47;1.80;;;;;;;28.52;64.66;100971.41;5214751;28;20021;-73
2023/08/22 11:19:05;;;;;;;3.05;1.33;;;;;;;28.79;65.91;100957.75;5212041;28;20488;-73
2023/08/22 11:21:38;;;;;;;5.25;1.40;;;;;;;28.90;65.43;100969.09;5212880;28;20078;-73
2023/08/22 11:24:10;;;;;;;5.05;1.60;;;;;;;28.67;65.43;100966.28;5212817;28;20387;-73
2023/08/22 11:26:41;;;;;;;5.45;1.60;;;;;;;28.72;65.71;100958.53;5213985;28;20422;-72
2023/08/22 11:29:11;;;;;;;5.43;2.13;;;;;;;28.69;67.19;100962.44;5214101;28;20307;-72
2023/08/22 11:31:41;;;;;;;6.50;1.50;;;;;;;28.66;66.76;100968.09;5213270;28;20025;-73
2023/08/22 11:34:12;;;;;;;3.65;1.48;;;;;;;28.25;69.33;100965.28;5213237;28;20382;-73
2023/08/22 11:36:43;;;;;;;4.67;1.30;;;;;;;28.46;66.09;100963.97;5215713;28;20029;-73
2023/08/22 11:39:14;;;;;;;3.35;1.48;;;;;;;28.56;67.58;100970.09;5216691;28;20280;-73
2023/08/22 11:41:44;;;;;;;5.10;1.55;;;;;;;28.48;65.46;100961.13;5217663;28;20086;-73